Terminal Aerodrome Forecast
Issued by NWS

Home | Current Version | Previous Version | Text Only | Print | Product List | Glossary Off
Versions: 1 2 3 4 5 6 7 8 9 10 11 12 13 14

000
FTUS43 KIWX 200552
TAFSBN
TAF
KSBN 200552Z 2006/2106 15006KT P6SM VCSH BKN050
      TEMPO 2011/2014 29020G30KT 3SM TSRA BKN050CB
     FM201400 24010KT P6SM SCT050
     FM202100 29008KT P6SM VCTS SCT200CB
     FM210000 31007KT P6SM SCT050=

USA.gov is the U.S. government's official web portal to all federal, state and local government web resources and services.